createdAt,value
2023-04-09T00:01:15.633Z,2.25
2023-04-09T00:06:18.510Z,2.40
2023-04-09T00:11:21.737Z,2.00
2023-04-09T00:16:26.096Z,2.53
2023-04-09T00:21:28.981Z,1.80
2023-04-09T00:26:32.486Z,2.05
2023-04-09T00:31:36.712Z,3.38
2023-04-09T00:36:39.597Z,1.83
2023-04-09T00:41:42.471Z,2.20
2023-04-09T00:46:46.662Z,2.63
2023-04-09T00:51:49.892Z,2.10
2023-04-09T00:56:53.197Z,2.40
2023-04-09T01:01:57.573Z,1.95
2023-04-09T01:07:06.475Z,1.77
2023-04-09T01:12:16.099Z,2.08
2023-04-09T01:17:26.071Z,1.90
2023-04-09T01:22:37.893Z,1.70
2023-04-09T01:27:57.567Z,2.75
2023-04-09T01:33:03.189Z,2.20
2023-04-09T01:38:06.487Z,2.15
2023-04-09T01:43:10.136Z,2.42
2023-04-09T01:48:16.008Z,2.35
2023-04-09T01:53:19.300Z,2.10
2023-04-09T01:58:22.153Z,2.45
2023-04-09T02:03:29.488Z,2.10
2023-04-09T02:08:34.444Z,2.60
2023-04-09T02:13:41.348Z,2.20
2023-04-09T02:18:45.630Z,2.50
2023-04-09T02:23:48.472Z,2.25
2023-04-09T02:28:51.878Z,2.63
2023-04-09T02:33:56.225Z,2.08
2023-04-09T02:38:59.120Z,2.03
2023-04-09T02:44:01.993Z,2.40
2023-04-09T02:49:06.323Z,2.10
2023-04-09T02:54:09.178Z,2.10
2023-04-09T02:59:12.012Z,2.38
2023-04-09T03:04:16.339Z,2.25
2023-04-09T03:09:19.290Z,2.53
2023-04-09T03:14:22.198Z,2.30
2023-04-09T03:19:27.126Z,2.75
2023-04-09T03:24:30.019Z,2.47
2023-04-09T03:29:32.923Z,2.53
2023-04-09T03:34:37.093Z,2.17
2023-04-09T03:39:39.954Z,2.10
2023-04-09T03:44:42.794Z,2.08
2023-04-09T03:49:47.002Z,1.95
2023-04-09T03:54:49.935Z,1.95
2023-04-09T03:59:52.742Z,2.10
2023-04-09T04:04:57.148Z,1.98
2023-04-09T04:10:00.000Z,2.03
2023-04-09T04:15:03.077Z,2.20
2023-04-09T04:20:08.462Z,2.58
2023-04-09T04:25:11.916Z,1.73
2023-04-09T04:30:14.731Z,1.85
2023-04-09T04:35:19.149Z,1.95
2023-04-09T04:40:22.140Z,1.60
2023-04-09T04:45:24.966Z,1.60
2023-04-09T04:50:29.119Z,2.08
2023-04-09T04:55:31.964Z,2.00
2023-04-09T05:00:34.791Z,2.47
2023-04-09T05:05:38.984Z,2.35
2023-04-09T05:10:43.069Z,1.90
2023-04-09T05:15:45.918Z,2.13
2023-04-09T05:20:50.090Z,2.42
2023-04-09T05:25:52.933Z,1.95
2023-04-09T05:30:55.791Z,2.38
2023-04-09T05:35:59.998Z,2.00
2023-04-09T05:41:02.837Z,2.10
2023-04-09T05:46:06.043Z,2.42
2023-04-09T05:51:10.611Z,2.20
2023-04-09T05:56:17.151Z,2.00
2023-04-09T06:01:20.013Z,2.90
2023-04-09T06:06:24.157Z,2.33
2023-04-09T06:11:27.092Z,2.92
2023-04-09T06:16:29.940Z,2.47
2023-04-09T06:21:34.234Z,2.97
2023-04-09T06:26:37.106Z,2.83
2023-04-09T06:31:40.083Z,3.03
2023-04-09T06:36:44.578Z,2.72
2023-04-09T06:41:47.854Z,2.85
2023-04-09T06:46:50.760Z,2.40
2023-04-09T06:51:55.047Z,2.40
2023-04-09T06:56:57.941Z,2.60
2023-04-09T07:02:01.274Z,4.82
2023-04-09T07:07:05.470Z,4.82
2023-04-09T07:12:08.386Z,4.20
2023-04-09T07:17:11.176Z,6.35
2023-04-09T07:22:15.425Z,3.67
2023-04-09T07:27:18.621Z,5.65
2023-04-09T07:32:21.455Z,3.38
2023-04-09T07:37:26.090Z,4.40
2023-04-09T07:42:29.088Z,6.68
2023-04-09T07:47:32.562Z,5.07
2023-04-09T07:52:37.022Z,11.93
2023-04-09T07:57:39.906Z,5.88
2023-04-09T08:02:42.792Z,4.88
2023-04-09T08:07:47.152Z,6.43
2023-04-09T08:12:50.594Z,5.80
2023-04-09T08:17:53.428Z,16.10
2023-04-09T08:22:57.619Z,6.82
2023-04-09T08:28:00.494Z,7.20
2023-04-09T08:33:03.529Z,6.45
2023-04-09T08:38:07.740Z,9.85
2023-04-09T08:43:15.624Z,6.70
2023-04-09T08:48:19.835Z,6.22
2023-04-09T08:53:24.558Z,5.35
2023-04-09T08:58:27.669Z,5.03
2023-04-09T09:03:30.568Z,6.80
2023-04-09T09:08:34.881Z,3.20
2023-04-09T09:13:37.845Z,9.38
2023-04-09T09:18:42.240Z,7.90
2023-04-09T09:23:48.381Z,6.15
2023-04-09T09:28:52.081Z,5.18
2023-04-09T09:33:56.430Z,4.65
2023-04-09T09:39:03.815Z,6.22
2023-04-09T09:44:08.033Z,4.18
2023-04-09T09:49:10.968Z,3.97
2023-04-09T09:54:18.097Z,5.78
2023-04-09T09:59:22.598Z,4.90
2023-04-09T10:04:28.981Z,4.55
2023-04-09T10:09:34.297Z,3.67
2023-04-09T10:14:38.327Z,5.03
2023-04-09T10:19:55.696Z,5.18
2023-04-09T10:25:00.566Z,3.92
2023-04-09T10:30:05.290Z,3.67
2023-04-09T10:35:11.116Z,4.03
2023-04-09T10:40:20.467Z,4.45
2023-04-09T10:45:23.306Z,4.63
2023-04-09T10:50:27.890Z,4.47
2023-04-09T10:55:39.382Z,3.83
2023-04-09T11:00:43.894Z,4.38
2023-04-09T11:05:49.690Z,3.08
2023-04-09T11:10:58.259Z,3.35
2023-04-09T11:16:04.077Z,2.90
2023-04-09T11:21:09.562Z,4.35
2023-04-09T11:26:13.791Z,4.88
2023-04-09T11:31:16.676Z,3.15
2023-04-09T11:36:19.699Z,3.25
2023-04-09T11:41:35.371Z,3.22
2023-04-09T11:46:39.964Z,3.17
2023-04-09T11:51:43.251Z,3.72
2023-04-09T11:56:55.632Z,2.67
2023-04-09T12:01:59.509Z,2.80
2023-04-09T12:07:02.418Z,3.58
2023-04-09T12:12:11.202Z,2.63
2023-04-09T12:17:14.058Z,3.08
2023-04-09T12:22:16.925Z,2.28
2023-04-09T12:27:21.101Z,3.08
2023-04-09T12:32:24.004Z,3.58
2023-04-09T12:37:28.665Z,2.95
2023-04-09T12:42:32.821Z,3.58
2023-04-09T12:47:35.717Z,2.90
2023-04-09T12:52:39.258Z,2.85
2023-04-09T12:57:45.731Z,3.38
2023-04-09T13:02:48.763Z,2.33
2023-04-09T13:07:51.625Z,2.30
2023-04-09T13:12:56.144Z,2.35
2023-04-09T13:17:58.938Z,2.25
2023-04-09T13:23:01.887Z,2.70
2023-04-09T13:28:06.464Z,2.50
2023-04-09T13:33:09.303Z,2.60
2023-04-09T13:38:12.145Z,2.60
2023-04-09T13:43:16.344Z,2.22
2023-04-09T13:48:19.153Z,2.83
2023-04-09T13:53:24.196Z,2.20
2023-04-09T13:58:28.358Z,2.53
2023-04-09T14:03:31.494Z,2.42
2023-04-09T14:08:34.363Z,2.00
2023-04-09T14:13:38.540Z,2.13
2023-04-09T14:18:41.687Z,2.17
2023-04-09T14:23:44.534Z,2.92
2023-04-09T14:28:48.729Z,1.98
2023-04-09T14:33:51.602Z,2.53
2023-04-09T14:38:57.420Z,2.53
2023-04-09T14:44:02.047Z,2.28
2023-04-09T14:49:05.191Z,2.55
2023-04-09T14:54:08.044Z,2.10
2023-04-09T14:59:12.269Z,1.80
2023-04-09T15:04:15.691Z,1.92
2023-04-09T15:09:18.660Z,2.35
2023-04-09T15:14:23.783Z,2.25
2023-04-09T15:19:26.668Z,1.83
2023-04-09T15:24:29.604Z,2.80
2023-04-09T15:29:34.434Z,2.38
2023-04-09T15:34:37.276Z,2.05
2023-04-09T15:39:40.482Z,1.77
2023-04-09T15:44:44.662Z,1.95
2023-04-09T15:49:47.546Z,2.60
2023-04-09T15:54:50.346Z,1.50
2023-04-09T15:59:55.124Z,2.25
2023-04-09T16:04:57.950Z,1.92
2023-04-09T16:10:01.690Z,2.10
2023-04-09T16:15:06.706Z,1.70
2023-04-09T16:20:10.036Z,1.65
2023-04-09T16:25:12.902Z,1.70
2023-04-09T16:30:17.075Z,1.70
2023-04-09T16:35:20.279Z,1.80
2023-04-09T16:40:24.403Z,1.50
2023-04-09T16:45:28.666Z,1.30
2023-04-09T16:50:31.473Z,1.63
2023-04-09T16:55:35.031Z,1.50
2023-04-09T17:00:40.031Z,1.98
2023-04-09T17:05:45.276Z,1.77
2023-04-09T17:10:48.130Z,1.48
2023-04-09T17:15:53.160Z,1.63
2023-04-09T17:20:56.006Z,2.03
2023-04-09T17:26:00.545Z,1.55
2023-04-09T17:31:04.979Z,1.50
2023-04-09T17:36:08.374Z,1.35
2023-04-09T17:41:11.253Z,1.80
2023-04-09T17:46:16.827Z,1.70
2023-04-09T17:51:20.702Z,1.63
2023-04-09T17:56:23.740Z,1.63
2023-04-09T18:01:27.994Z,1.67
2023-04-09T18:06:31.449Z,1.90
2023-04-09T18:11:34.360Z,1.70
2023-04-09T18:16:39.387Z,1.67
2023-04-09T18:21:42.330Z,1.58
2023-04-09T18:26:45.224Z,1.63
2023-04-09T18:31:49.503Z,1.40
2023-04-09T18:36:53.222Z,1.98
2023-04-09T18:41:57.059Z,2.13
2023-04-09T18:47:02.626Z,2.20
2023-04-09T18:52:06.364Z,2.30
2023-04-09T18:57:09.186Z,1.80
2023-04-09T19:02:13.504Z,1.63
2023-04-09T19:07:17.061Z,2.25
2023-04-09T19:12:20.363Z,1.88
2023-04-09T19:17:24.623Z,2.20
2023-04-09T19:22:28.106Z,1.60
2023-04-09T19:27:30.930Z,2.38
2023-04-09T19:32:35.181Z,1.95
2023-04-09T19:37:38.161Z,1.83
2023-04-09T19:42:41.194Z,1.83
2023-04-09T19:47:45.577Z,2.40
2023-04-09T19:52:48.423Z,2.47
2023-04-09T19:57:51.734Z,2.83
2023-04-09T20:02:57.070Z,3.03
2023-04-09T20:08:00.598Z,2.45
2023-04-09T20:13:03.830Z,2.28
2023-04-09T20:18:08.198Z,2.35
2023-04-09T20:23:11.284Z,2.35
2023-04-09T20:28:14.129Z,2.35
2023-04-09T20:33:18.964Z,2.20
2023-04-09T20:38:22.323Z,2.22
2023-04-09T20:43:25.265Z,2.30
2023-04-09T20:48:32.388Z,2.20
2023-04-09T20:53:35.218Z,2.20
2023-04-09T20:58:38.884Z,2.25
2023-04-09T21:03:43.425Z,2.47
2023-04-09T21:08:46.286Z,3.38
2023-04-09T21:13:54.392Z,2.42
2023-04-09T21:18:59.021Z,2.97
2023-04-09T21:24:01.888Z,3.17
2023-04-09T21:29:04.726Z,2.47
2023-04-09T21:34:08.907Z,2.53
2023-04-09T21:39:11.749Z,2.50
2023-04-09T21:44:14.586Z,2.17
2023-04-09T21:49:18.764Z,2.30
2023-04-09T21:54:21.584Z,2.42
2023-04-09T21:59:24.388Z,2.55
2023-04-09T22:04:28.645Z,2.78
2023-04-09T22:09:31.989Z,2.50
2023-04-09T22:14:34.862Z,2.33
2023-04-09T22:19:39.140Z,3.45
2023-04-09T22:24:42.127Z,2.80
2023-04-09T22:29:45.025Z,2.75
2023-04-09T22:34:49.216Z,2.30
2023-04-09T22:39:52.043Z,2.53
2023-04-09T22:44:54.994Z,2.90
2023-04-09T22:49:59.160Z,2.83
2023-04-09T22:55:02.080Z,2.55
2023-04-09T23:00:06.026Z,2.75
2023-04-09T23:05:11.224Z,2.88
2023-04-09T23:10:16.130Z,2.78
2023-04-09T23:15:19.473Z,2.92
2023-04-09T23:20:24.292Z,2.97
2023-04-09T23:25:27.134Z,3.33
2023-04-09T23:30:30.000Z,3.17
2023-04-09T23:35:34.212Z,3.83
2023-04-09T23:40:37.075Z,2.75
2023-04-09T23:45:39.896Z,2.30
2023-04-09T23:50:44.158Z,2.60
2023-04-09T23:55:47.784Z,3.15
